createdAt,value
2018-05-01T00:02:51.285Z,64.00
2018-05-01T00:07:55.004Z,64.00
2018-05-01T00:13:01.014Z,64.30
2018-05-01T00:18:06.105Z,64.90
2018-05-01T00:23:09.110Z,64.30
2018-05-01T00:28:12.194Z,65.00
2018-05-01T00:33:17.644Z,64.90
2018-05-01T00:38:21.109Z,65.70
2018-05-01T00:43:24.817Z,66.60
2018-05-01T00:48:28.958Z,66.90
2018-05-01T00:53:32.509Z,66.30
2018-05-01T00:58:38.686Z,66.60
2018-05-01T01:03:43.417Z,66.80
2018-05-01T01:14:03.181Z,66.90
2018-05-01T01:19:09.295Z,67.10
2018-05-01T01:24:14.819Z,67.20
2018-05-01T01:29:19.289Z,67.60
2018-05-01T01:34:25.239Z,67.70
2018-05-01T01:39:33.834Z,68.50
2018-05-01T01:44:36.322Z,68.40
2018-05-01T01:49:40.544Z,68.40
2018-05-01T01:54:43.852Z,68.70
2018-05-01T01:59:48.980Z,68.60
2018-05-01T02:04:52.235Z,69.70
2018-05-01T02:09:55.267Z,69.60
2018-05-01T02:14:58.618Z,69.70
2018-05-01T02:20:02.757Z,69.70
2018-05-01T02:25:07.063Z,69.80
2018-05-01T02:30:10.048Z,69.60
2018-05-01T02:35:13.666Z,70.10
2018-05-01T02:40:17.015Z,70.40
2018-05-01T02:45:23.166Z,70.30
2018-05-01T02:50:26.558Z,70.60
2018-05-01T02:55:30.505Z,71.40
2018-05-01T03:00:34.378Z,70.70
2018-05-01T03:05:46.575Z,71.10
2018-05-01T03:10:49.034Z,70.60
2018-05-01T03:15:53.535Z,71.10
2018-05-01T03:20:57.467Z,70.60
2018-05-01T03:26:01.156Z,71.20
2018-05-01T03:31:05.955Z,70.30
2018-05-01T03:36:09.362Z,71.30
2018-05-01T03:41:11.769Z,71.20
2018-05-01T03:51:23.331Z,71.30
2018-05-01T03:56:29.820Z,70.70
2018-05-01T04:01:33.377Z,71.20
2018-05-01T04:06:37.129Z,70.60
2018-05-01T04:11:39.577Z,71.20
2018-05-01T04:16:42.645Z,71.10
2018-05-01T04:21:45.561Z,71.60
2018-05-01T04:26:51.317Z,72.00
2018-05-01T04:31:54.844Z,71.70
2018-05-01T04:36:57.236Z,72.00
2018-05-01T04:42:01.062Z,72.00
2018-05-01T04:47:08.392Z,72.00
2018-05-01T04:52:12.588Z,71.80
2018-05-01T04:57:15.955Z,71.70
2018-05-01T05:07:28.688Z,71.90
2018-05-01T05:17:39.942Z,71.90
2018-05-01T05:22:46.384Z,71.80
2018-05-01T05:27:51.386Z,71.60
2018-05-01T05:32:54.278Z,72.00
2018-05-01T05:37:58.332Z,71.70
2018-05-01T05:43:02.573Z,72.00
2018-05-01T05:48:07.670Z,72.00
2018-05-01T05:53:10.726Z,72.20
2018-05-01T05:58:14.490Z,72.20
2018-05-01T06:03:17.862Z,71.60
2018-05-01T06:08:20.282Z,71.60
2018-05-01T06:13:23.915Z,71.90
2018-05-01T06:18:28.501Z,72.10
2018-05-01T06:23:35.334Z,71.90
2018-05-01T06:28:39.655Z,71.70
2018-05-01T06:33:43.984Z,71.30
2018-05-01T06:43:58.706Z,69.30
2018-05-01T06:49:03.503Z,68.10
2018-05-01T06:54:06.764Z,68.00
2018-05-01T06:59:10.705Z,67.80
2018-05-01T07:04:16.875Z,67.60
2018-05-01T07:09:21.583Z,66.10
2018-05-01T07:14:26.446Z,66.00
2018-05-01T07:19:30.967Z,65.90
2018-05-01T07:24:35.985Z,64.50
2018-05-01T07:29:42.107Z,63.50
2018-05-01T07:34:44.271Z,63.60
2018-05-01T07:39:48.259Z,61.30
2018-05-01T07:44:52.743Z,61.20
2018-05-01T07:49:56.960Z,59.70
2018-05-01T07:55:02.100Z,59.00
2018-05-01T08:00:05.360Z,58.50
2018-05-01T08:05:08.402Z,59.00
2018-05-01T08:10:12.522Z,59.60
2018-05-01T08:15:16.755Z,59.90
2018-05-01T08:20:21.253Z,60.30
2018-05-01T08:25:26.663Z,59.20
2018-05-01T08:30:29.491Z,59.60
2018-05-01T08:35:35.899Z,60.60
2018-05-01T08:40:42.919Z,60.80
2018-05-01T08:45:48.287Z,60.00
2018-05-01T08:50:52.156Z,58.70
2018-05-01T08:55:56.400Z,58.40
2018-05-01T09:01:02.150Z,57.50
2018-05-01T09:06:07.565Z,56.80
2018-05-01T09:11:18.153Z,56.10
2018-05-01T09:16:21.950Z,55.00
2018-05-01T09:21:27.186Z,54.10
2018-05-01T09:26:32.186Z,52.50
2018-05-01T09:31:38.455Z,52.90
2018-05-01T09:36:46.146Z,51.20
2018-05-01T09:41:50.006Z,51.90
2018-05-01T09:46:53.968Z,52.00
2018-05-01T09:51:56.754Z,50.90
2018-05-01T09:57:02.018Z,50.30
2018-05-01T10:02:08.537Z,50.50
2018-05-01T10:07:15.083Z,50.10
2018-05-01T10:12:18.761Z,49.10
2018-05-01T10:17:25.245Z,47.50
2018-05-01T10:22:34.086Z,47.10
2018-05-01T10:27:37.448Z,47.00
2018-05-01T10:37:47.847Z,44.80
2018-05-01T10:42:51.813Z,45.50
2018-05-01T10:47:54.803Z,46.10
2018-05-01T10:53:00.590Z,45.40
2018-05-01T10:58:04.833Z,44.40
2018-05-01T11:03:09.127Z,45.40
2018-05-01T11:08:12.067Z,45.00
2018-05-01T11:13:17.393Z,44.50
2018-05-01T11:18:21.415Z,44.20
2018-05-01T11:23:26.096Z,42.70
2018-05-01T11:28:30.546Z,44.70
2018-05-01T11:33:35.516Z,44.90
2018-05-01T11:38:41.713Z,43.20
2018-05-01T11:43:45.333Z,42.90
2018-05-01T11:48:49.102Z,42.60
2018-05-01T11:53:54.841Z,42.30
2018-05-01T11:58:58.684Z,43.30
2018-05-01T12:04:02.429Z,41.40
2018-05-01T12:09:07.735Z,41.90
2018-05-01T12:14:15.373Z,42.70
2018-05-01T12:24:31.089Z,42.50
2018-05-01T12:29:35.528Z,41.90
2018-05-01T12:34:39.638Z,42.60
2018-05-01T12:39:43.653Z,42.00
2018-05-01T12:44:49.906Z,43.00
2018-05-01T12:49:54.948Z,42.90
2018-05-01T12:55:00.083Z,41.10
2018-05-01T13:00:08.878Z,41.10
2018-05-01T13:05:14.812Z,40.40
2018-05-01T13:10:20.417Z,41.50
2018-05-01T13:15:25.565Z,40.80
2018-05-01T13:25:37.124Z,40.60
2018-05-01T13:30:43.000Z,41.10
2018-05-01T13:35:49.335Z,41.80
2018-05-01T13:40:54.104Z,42.10
2018-05-01T13:45:57.124Z,41.70
2018-05-01T13:51:01.629Z,41.40
2018-05-01T13:56:05.497Z,41.20
2018-05-01T14:01:10.840Z,40.60
2018-05-01T14:06:17.849Z,40.90
2018-05-01T14:11:23.350Z,42.20
2018-05-01T14:16:29.468Z,41.60
2018-05-01T14:21:33.519Z,41.10
2018-05-01T14:26:36.830Z,42.40
2018-05-01T14:31:41.090Z,41.60
2018-05-01T14:36:45.245Z,41.50
2018-05-01T14:41:49.992Z,40.50
2018-05-01T14:52:03.962Z,42.30
2018-05-01T14:57:11.288Z,41.60
2018-05-01T15:02:14.222Z,41.30
2018-05-01T15:07:17.989Z,41.20
2018-05-01T15:12:23.471Z,40.20
2018-05-01T15:17:29.301Z,40.30
2018-05-01T15:22:32.156Z,41.20
2018-05-01T15:27:37.179Z,40.90
2018-05-01T15:32:42.676Z,40.60
2018-05-01T15:37:51.123Z,40.90
2018-05-01T15:42:55.042Z,40.80
2018-05-01T15:48:01.198Z,42.20
2018-05-01T15:53:06.156Z,41.20
2018-05-01T15:58:10.679Z,40.50
2018-05-01T16:03:13.937Z,41.20
2018-05-01T16:13:39.898Z,41.70
2018-05-01T16:18:47.717Z,41.20
2018-05-01T16:23:56.463Z,41.90
2018-05-01T16:29:02.363Z,41.70
2018-05-01T16:34:06.634Z,42.20
2018-05-01T16:39:10.828Z,42.00
2018-05-01T16:44:14.093Z,42.30
2018-05-01T16:49:18.264Z,42.10
2018-05-01T16:54:22.092Z,42.70
2018-05-01T16:59:27.378Z,42.60
2018-05-01T17:04:33.323Z,43.10
2018-05-01T17:09:42.482Z,44.20
2018-05-01T17:14:47.341Z,43.40
2018-05-01T17:19:50.684Z,43.20
2018-05-01T17:24:57.567Z,43.30
2018-05-01T17:30:03.196Z,44.10
2018-05-01T17:35:08.331Z,43.90
2018-05-01T17:40:15.360Z,44.10
2018-05-01T17:45:19.894Z,44.10
2018-05-01T17:50:24.611Z,44.30
2018-05-01T17:55:32.302Z,44.20
2018-05-01T18:05:47.146Z,45.40
2018-05-01T18:10:51.695Z,45.30
2018-05-01T18:15:55.462Z,45.40
2018-05-01T18:21:00.835Z,46.30
2018-05-01T18:26:06.249Z,46.50
2018-05-01T18:31:10.449Z,46.50
2018-05-01T18:36:13.657Z,46.40
2018-05-01T18:41:21.802Z,46.30
2018-05-01T18:46:26.508Z,46.50
2018-05-01T18:51:30.577Z,46.90
2018-05-01T18:56:34.441Z,46.80
2018-05-01T19:01:38.708Z,47.10
2018-05-01T19:06:42.231Z,47.50
2018-05-01T19:11:45.024Z,47.60
2018-05-01T19:16:49.781Z,47.60
2018-05-01T19:21:54.677Z,48.10
2018-05-01T19:26:57.486Z,48.10
2018-05-01T19:32:03.373Z,48.70
2018-05-01T19:37:07.892Z,48.60
2018-05-01T19:42:11.674Z,48.10
2018-05-01T19:47:16.347Z,48.40
2018-05-01T19:52:24.983Z,48.70
2018-05-01T19:57:30.060Z,48.70
2018-05-01T20:02:33.139Z,48.70
2018-05-01T20:07:40.762Z,49.10
2018-05-01T20:12:44.579Z,49.00
2018-05-01T20:17:47.978Z,49.10
2018-05-01T20:22:53.903Z,49.20
2018-05-01T20:27:59.083Z,49.30
2018-05-01T20:33:06.482Z,49.60
2018-05-01T20:38:11.379Z,49.70
2018-05-01T20:43:16.340Z,49.80
2018-05-01T20:48:23.023Z,50.00
2018-05-01T20:53:26.747Z,49.90
2018-05-01T20:58:31.116Z,50.20
2018-05-01T21:03:35.154Z,50.50
2018-05-01T21:08:38.665Z,50.40
2018-05-01T21:13:48.025Z,51.10
2018-05-01T21:18:54.031Z,50.80
2018-05-01T21:24:01.773Z,50.70
2018-05-01T21:29:06.063Z,51.30
2018-05-01T21:34:11.178Z,51.40
2018-05-01T21:39:14.650Z,51.40
2018-05-01T21:44:18.262Z,51.50
2018-05-01T21:49:23.292Z,51.80
2018-05-01T21:54:28.962Z,51.60
2018-05-01T21:59:35.921Z,51.60
2018-05-01T22:04:40.437Z,51.90
2018-05-01T22:09:44.927Z,51.90
2018-05-01T22:14:49.239Z,51.70
2018-05-01T22:19:53.131Z,51.80
2018-05-01T22:24:57.888Z,51.90
2018-05-01T22:30:02.331Z,52.00
2018-05-01T22:35:06.069Z,52.00
2018-05-01T22:40:10.906Z,52.10
2018-05-01T22:45:14.588Z,52.10
2018-05-01T22:50:18.380Z,52.00
2018-05-01T22:55:23.603Z,52.20
2018-05-01T23:00:28.085Z,51.90
2018-05-01T23:05:35.639Z,52.00
2018-05-01T23:10:40.420Z,52.30
2018-05-01T23:15:45.912Z,52.00
2018-05-01T23:20:50.830Z,52.40
2018-05-01T23:25:55.081Z,52.70
2018-05-01T23:31:01.117Z,52.30
2018-05-01T23:36:04.185Z,52.60
2018-05-01T23:41:07.825Z,52.90
2018-05-01T23:46:13.559Z,52.80
2018-05-01T23:51:20.111Z,53.00
2018-05-01T23:56:24.480Z,53.20
